Airfield :
LOGIN :

Register | Disclaimer

   EN    FR    IT 

 










Legend :    VFR   Marginal VFR   IFR   Intensive IFR   Very Intensive IFR
Visi :
Ceiling :
>= 8 km
>= 3000ft
5 to 8 km
1000 to 3000 ft
1500m to 5 km
500 to 1000 ft
800 to 1500m
200 to 500 ft
< 800m
< 200 ft
Symbols :   Thunderstorms  Fog  Heavy snow  Heavy precipitations  Wind > 20 kt
SIGMETs :     Misc.  Thunderstorms  Icing  Turbulence  Mountain Waves  Volcanic Ashes






- Airport Elevation : 313 ft


LFQA - Reims-Prunay

CURRENT METAR :
  • 170630Z AUTO 30006KT 6000 -RA SCT028 BKN039 OVC047 03/03 Q1018

EXPIRED METARs :
  • 170600Z AUTO 30006KT 270V330 5000 -RA BR BKN005 BKN019 OVC024 03/03 Q1018
  • 170530Z AUTO 28004KT 5000 BR OVC004/// ///TCU 03/03 Q1018
  • 170500Z AUTO 29003KT 4100 -RA BR OVC004/// ///TCU 03/03 Q1018
  • 170430Z AUTO 29004KT 4400 -RA BR OVC004 03/02 Q1018
  • 170400Z AUTO 28004KT 4700 BR OVC004 02/02 Q1017

TAF N/A



MET'MAP, your aeronautical weather chart ! - Copyright ORBIFLY December 2007 - Disclaimer

ORBIFLY MET'MAP TEAM :

Programming & Development : Alexandra Zaïnal
Concept & original design : Baudouin d'Aumeries
Assistance for programming : Marc-Olivier Méhu
Technical & hardware support : Manuel Goepfert

Contact : metmap@orbifly.com




SOURCES & CREDITS :

   NOAA